Time;durP1;ratioP1;P1;durP2;ratioP2;P2;SDS_P1;SDS_P2;PMS_P1;PMS_P2;Temp;Humidity;BMP_temperature;BMP_pressure;BME280_temperature;BME280_humidity;BME280_pressure;Samples;Min_cycle;Max_cycle;Signal;HPM_P1;HPM_P2
2021/08/18 00:00:21;;;;;;;2.92;2.20;;;;;;;;;;4540432;28;20187;-72
2021/08/18 00:02:31;;;;;;;2.70;2.20;;;;;;;;;;4542440;28;35819;-72
2021/08/18 00:04:42;;;;;;;2.10;1.90;;;;;;;;;;4542623;28;20029;-72
2021/08/18 00:06:52;;;;;;;2.47;2.27;;;;;;;;;;4543265;28;20037;-72
2021/08/18 00:09:03;;;;;;;2.13;1.93;;;;;;;;;;4543907;28;20052;-70
2021/08/18 00:11:14;;;;;;;2.85;2.10;;;;;;;;;;4541778;28;20037;-71
2021/08/18 00:13:24;;;;;;;2.13;1.90;;;;;;;;;;4542378;28;20560;-71
2021/08/18 00:15:35;;;;;;;2.80;2.10;;;;;;;;;;4537979;28;20048;-71
2021/08/18 00:17:45;;;;;;;2.37;2.17;;;;;;;;;;4543007;28;20040;-70
2021/08/18 00:19:56;;;;;;;2.50;2.20;;;;;;;;;;4541642;28;20485;-71
2021/08/18 00:22:06;;;;;;;2.77;2.33;;;;;;;;;;4541261;28;33792;-71
2021/08/18 00:24:16;;;;;;;2.80;2.30;;;;;;;;;;4541674;28;20059;-71
2021/08/18 00:26:27;;;;;;;2.50;2.30;;;;;;;;;;4525919;28;20574;-72
2021/08/18 00:28:38;;;;;;;2.53;2.27;;;;;;;;;;4541856;28;20064;-71
2021/08/18 00:30:48;;;;;;;2.80;2.33;;;;;;;;;;4542509;28;20033;-71
2021/08/18 00:32:58;;;;;;;3.53;2.83;;;;;;;;;;4541698;28;20386;-72
2021/08/18 00:35:09;;;;;;;3.20;2.67;;;;;;;;;;4542915;28;20056;-72
2021/08/18 00:37:19;;;;;;;3.33;2.70;;;;;;;;;;4541791;28;20456;-71
2021/08/18 00:39:30;;;;;;;3.27;2.80;;;;;;;;;;4539800;28;20032;-71
2021/08/18 00:41:40;;;;;;;3.53;2.80;;;;;;;;;;4542646;28;23231;-71
2021/08/18 00:43:51;;;;;;;4.43;2.93;;;;;;;;;;4528540;28;20045;-71
2021/08/18 00:46:01;;;;;;;2.97;2.57;;;;;;;;;;4525864;28;20037;-71
2021/08/18 00:48:12;;;;;;;3.80;2.90;;;;;;;;;;4543761;28;20083;-71
2021/08/18 00:50:24;;;;;;;3.37;2.97;;;;;;;;;;4543265;28;20041;-71
2021/08/18 00:52:35;;;;;;;3.88;3.10;;;;;;;;;;4544371;28;20037;-71
2021/08/18 00:54:46;;;;;;;3.57;3.00;;;;;;;;;;4542944;28;20033;-71
2021/08/18 00:56:56;;;;;;;3.53;2.95;;;;;;;;;;4542984;28;22044;-71
2021/08/18 00:59:08;;;;;;;3.97;3.30;;;;;;;;;;4541223;28;20060;-71
2021/08/18 01:01:18;;;;;;;3.70;2.92;;;;;;;;;;4542909;28;20274;-71
2021/08/18 01:03:29;;;;;;;3.77;3.30;;;;;;;;;;4542249;28;20036;-71
2021/08/18 01:05:40;;;;;;;3.60;3.30;;;;;;;;;;4543257;28;20106;-71
2021/08/18 01:07:52;;;;;;;3.33;2.87;;;;;;;;;;4540803;28;20072;-71
2021/08/18 01:10:07;;;;;;;4.20;3.35;;;;;;;;;;4523770;28;20033;-70
2021/08/18 01:12:18;;;;;;;4.15;3.45;;;;;;;;;;4541645;28;20029;-71
2021/08/18 01:14:28;;;;;;;4.47;3.73;;;;;;;;;;4540408;28;23793;-72
2021/08/18 01:16:44;;;;;;;3.70;3.30;;;;;;;;;;4540780;28;20024;-72
2021/08/18 01:18:54;;;;;;;4.03;3.63;;;;;;;;;;4539869;28;20036;-72
2021/08/18 01:21:05;;;;;;;4.73;3.83;;;;;;;;;;4541945;28;20044;-72
2021/08/18 01:23:15;;;;;;;5.10;4.13;;;;;;;;;;4540626;28;20368;-72
2021/08/18 01:25:28;;;;;;;4.85;4.05;;;;;;;;;;4538238;28;20536;-72
2021/08/18 01:27:46;;;;;;;5.73;4.50;;;;;;;;;;4541184;28;20099;-72
2021/08/18 01:29:57;;;;;;;5.72;4.78;;;;;;;;;;4541434;28;20040;-72
2021/08/18 01:32:08;;;;;;;;;;;;;;;;;;4539188;28;20044;-72
2021/08/18 01:34:18;;;;;;;5.60;4.70;;;;;;;;;;4539122;28;19912;-72
2021/08/18 01:36:29;;;;;;;6.20;5.00;;;;;;;;;;4526349;28;35957;-72
2021/08/18 01:38:40;;;;;;;6.43;4.90;;;;;;;;;;4540358;28;20595;-72
2021/08/18 01:40:52;;;;;;;6.33;5.00;;;;;;;;;;4540949;28;24494;-72
2021/08/18 01:43:03;;;;;;;6.40;4.57;;;;;;;;;;4542443;28;20106;-72
2021/08/18 01:45:22;;;;;;;6.10;4.80;;;;;;;;;;4524560;28;20115;-72
2021/08/18 01:47:33;;;;;;;5.93;4.97;;;;;;;;;;4541020;28;20505;-72
2021/08/18 01:49:43;;;;;;;6.40;5.20;;;;;;;;;;4539489;28;20033;-72
2021/08/18 01:51:56;;;;;;;6.03;5.43;;;;;;;;;;4540344;28;20928;-72
2021/08/18 01:54:06;;;;;;;6.28;5.07;;;;;;;;;;4541709;28;20064;-72
2021/08/18 01:56:17;;;;;;;6.43;5.30;;;;;;;;;;4540545;28;21671;-72
2021/08/18 01:58:28;;;;;;;5.57;4.90;;;;;;;;;;4541784;28;20046;-72
2021/08/18 02:00:39;;;;;;;5.88;5.05;;;;;;;;;;4541132;28;20670;-72
2021/08/18 02:02:49;;;;;;;6.50;5.43;;;;;;;;;;4542060;28;20183;-72
2021/08/18 02:05:00;;;;;;;6.87;5.77;;;;;;;;;;4544218;28;20040;-72
2021/08/18 02:07:10;;;;;;;6.40;5.40;;;;;;;;;;4537329;28;20075;-72
2021/08/18 02:09:21;;;;;;;6.97;6.03;;;;;;;;;;4539233;28;20039;-72
2021/08/18 02:11:31;;;;;;;6.70;5.70;;;;;;;;;;4538604;28;20037;-72
2021/08/18 02:13:41;;;;;;;6.67;5.83;;;;;;;;;;4541408;28;20457;-72
2021/08/18 02:15:52;;;;;;;8.37;6.50;;;;;;;;;;4540798;28;20040;-72
2021/08/18 02:18:04;;;;;;;7.20;6.03;;;;;;;;;;4541575;28;25918;-72
2021/08/18 02:20:18;;;;;;;7.13;5.65;;;;;;;;;;4538228;28;20037;-72
2021/08/18 02:22:28;;;;;;;6.80;5.88;;;;;;;;;;4540869;28;20029;-72
2021/08/18 02:24:39;;;;;;;5.87;5.17;;;;;;;;;;4539558;28;20122;-72
2021/08/18 02:26:49;;;;;;;7.30;6.20;;;;;;;;;;4538905;28;20020;-72
2021/08/18 02:29:00;;;;;;;7.50;6.40;;;;;;;;;;4538115;28;20094;-72
2021/08/18 02:31:10;;;;;;;7.00;6.20;;;;;;;;;;4539939;28;20033;-72
2021/08/18 02:33:24;;;;;;;6.67;5.80;;;;;;;;;;4537594;28;20040;-72
2021/08/18 02:35:35;;;;;;;7.10;6.32;;;;;;;;;;4539542;28;20037;-73
2021/08/18 02:37:47;;;;;;;7.55;6.45;;;;;;;;;;4539910;28;20104;-72
2021/08/18 02:39:58;;;;;;;7.82;6.47;;;;;;;;;;4540528;28;20474;-72
2021/08/18 02:42:08;;;;;;;6.83;5.83;;;;;;;;;;4537318;28;20076;-72
2021/08/18 02:44:18;;;;;;;7.13;6.17;;;;;;;;;;4524598;28;28586;-72
2021/08/18 02:46:29;;;;;;;7.33;6.23;;;;;;;;;;4530917;28;21763;-72
2021/08/18 02:48:39;;;;;;;7.17;6.23;;;;;;;;;;4543345;28;20037;-72
2021/08/18 02:50:50;;;;;;;7.53;6.57;;;;;;;;;;4542547;28;20623;-72
2021/08/18 02:53:00;;;;;;;6.97;5.97;;;;;;;;;;4544664;28;20129;-72
2021/08/18 02:55:11;;;;;;;7.33;6.30;;;;;;;;;;4544618;28;20025;-72
2021/08/18 02:57:22;;;;;;;6.97;5.95;;;;;;;;;;4541942;28;20207;-72
2021/08/18 02:59:32;;;;;;;5.70;4.90;;;;;;;;;;4526227;28;20045;-72
2021/08/18 03:01:43;;;;;;;7.87;6.30;;;;;;;;;;4542695;28;20078;-71
2021/08/18 03:03:53;;;;;;;7.00;5.60;;;;;;;;;;4527390;28;20053;-72
2021/08/18 03:06:03;;;;;;;6.67;5.90;;;;;;;;;;4542977;28;20473;-72
2021/08/18 03:08:14;;;;;;;7.13;5.63;;;;;;;;;;4542650;28;20429;-71
2021/08/18 03:10:24;;;;;;;6.77;5.37;;;;;;;;;;4541880;28;20040;-72
2021/08/18 03:12:35;;;;;;;6.23;4.97;;;;;;;;;;4543250;28;20048;-72
2021/08/18 03:14:46;;;;;;;5.88;5.13;;;;;;;;;;4542673;28;20033;-72
2021/08/18 03:16:57;;;;;;;5.40;4.83;;;;;;;;;;4529628;28;20033;-72
2021/08/18 03:19:07;;;;;;;5.43;4.80;;;;;;;;;;4542094;28;20037;-72
2021/08/18 03:21:17;;;;;;;5.83;4.77;;;;;;;;;;4542582;28;20424;-72
2021/08/18 03:23:28;;;;;;;5.33;4.80;;;;;;;;;;4542943;28;20037;-72
2021/08/18 03:25:38;;;;;;;4.63;4.13;;;;;;;;;;4543127;28;20485;-72
2021/08/18 03:27:49;;;;;;;5.70;4.53;;;;;;;;;;4542293;28;20092;-72
2021/08/18 03:29:59;;;;;;;6.13;4.60;;;;;;;;;;4542256;28;20032;-72
2021/08/18 03:32:10;;;;;;;5.50;4.13;;;;;;;;;;4528613;28;20612;-72
2021/08/18 03:34:20;;;;;;;4.73;4.00;;;;;;;;;;4545411;28;20021;-72
2021/08/18 03:36:31;;;;;;;5.27;4.20;;;;;;;;;;4541420;28;20029;-72
2021/08/18 03:38:41;;;;;;;4.53;3.90;;;;;;;;;;4542393;28;20033;-72
2021/08/18 03:40:54;;;;;;;4.00;3.60;;;;;;;;;;4545228;28;29797;-72
2021/08/18 03:43:04;;;;;;;3.88;3.47;;;;;;;;;;4544089;28;20029;-72
2021/08/18 03:45:15;;;;;;;3.83;3.30;;;;;;;;;;4545239;28;20037;-72
2021/08/18 03:47:25;;;;;;;4.43;3.67;;;;;;;;;;4542991;28;20036;-72
2021/08/18 03:49:36;;;;;;;4.20;3.43;;;;;;;;;;4542766;28;20235;-72
2021/08/18 03:51:46;;;;;;;4.50;3.60;;;;;;;;;;4539836;28;33113;-72
2021/08/18 03:53:56;;;;;;;4.00;3.57;;;;;;;;;;4542483;28;20051;-72
2021/08/18 03:56:07;;;;;;;3.63;3.23;;;;;;;;;;4542445;28;20037;-72
2021/08/18 03:58:17;;;;;;;4.07;3.60;;;;;;;;;;4541655;28;20045;-70
2021/08/18 04:00:28;;;;;;;3.83;3.37;;;;;;;;;;4541443;28;20047;-68
2021/08/18 04:02:40;;;;;;;4.20;3.27;;;;;;;;;;4542515;28;20041;-69
2021/08/18 04:04:50;;;;;;;3.50;3.10;;;;;;;;;;4542364;28;20470;-69
2021/08/18 04:07:00;;;;;;;3.90;3.40;;;;;;;;;;4543426;28;20037;-69
2021/08/18 04:09:11;;;;;;;3.70;3.30;;;;;;;;;;4541633;28;20071;-70
2021/08/18 04:11:21;;;;;;;4.63;3.70;;;;;;;;;;4542903;28;26336;-71
2021/08/18 04:13:32;;;;;;;5.27;3.07;;;;;;;;;;4540518;28;20513;-70
2021/08/18 04:15:42;;;;;;;3.63;3.03;;;;;;;;;;4540397;28;20044;-70
2021/08/18 04:17:53;;;;;;;3.23;2.77;;;;;;;;;;4542145;28;20045;-70
2021/08/18 04:20:04;;;;;;;4.17;3.37;;;;;;;;;;4541470;28;20059;-70
2021/08/18 04:22:14;;;;;;;4.65;3.63;;;;;;;;;;4541120;28;20040;-71
2021/08/18 04:24:25;;;;;;;3.67;3.33;;;;;;;;;;4542382;28;20048;-70
2021/08/18 04:26:35;;;;;;;3.50;3.20;;;;;;;;;;4542076;28;20120;-71
2021/08/18 04:28:46;;;;;;;3.60;3.17;;;;;;;;;;4543384;28;20187;-70
2021/08/18 04:30:56;;;;;;;5.17;3.70;;;;;;;;;;4544497;28;20025;-67
2021/08/18 04:33:07;;;;;;;4.43;3.33;;;;;;;;;;4541933;28;20049;-70
2021/08/18 04:35:18;;;;;;;4.30;3.50;;;;;;;;;;4541520;28;20090;-69
2021/08/18 04:37:29;;;;;;;5.60;3.88;;;;;;;;;;4541291;28;20025;-70
2021/08/18 04:39:39;;;;;;;4.80;4.10;;;;;;;;;;4540683;28;20033;-70
2021/08/18 04:41:49;;;;;;;4.67;3.90;;;;;;;;;;4538694;28;20422;-70
2021/08/18 04:44:00;;;;;;;4.03;3.57;;;;;;;;;;4538149;28;36981;-71
2021/08/18 04:46:10;;;;;;;3.70;3.07;;;;;;;;;;4541458;28;20119;-71
2021/08/18 04:48:21;;;;;;;4.10;3.20;;;;;;;;;;4525765;28;20037;-71
2021/08/18 04:50:31;;;;;;;3.20;2.80;;;;;;;;;;4541016;27;20489;-73
2021/08/18 04:52:42;;;;;;;3.83;3.23;;;;;;;;;;4540016;28;20036;-71
2021/08/18 04:54:53;;;;;;;3.70;3.20;;;;;;;;;;4539287;28;20041;-71
2021/08/18 04:57:03;;;;;;;4.03;3.22;;;;;;;;;;4541614;28;20021;-71
2021/08/18 04:59:14;;;;;;;3.03;2.73;;;;;;;;;;4539543;28;20040;-71
2021/08/18 05:01:24;;;;;;;5.23;3.43;;;;;;;;;;4544833;28;20025;-71
2021/08/18 05:03:35;;;;;;;3.57;3.13;;;;;;;;;;4538925;28;20572;-71
2021/08/18 05:05:45;;;;;;;3.33;3.03;;;;;;;;;;4538736;28;27392;-72
2021/08/18 05:07:58;;;;;;;3.23;2.93;;;;;;;;;;4540600;28;20029;-72
2021/08/18 05:10:09;;;;;;;4.43;3.35;;;;;;;;;;4540357;28;20107;-71
2021/08/18 05:12:19;;;;;;;3.90;3.20;;;;;;;;;;4544647;28;20045;-72
2021/08/18 05:14:30;;;;;;;3.83;2.93;;;;;;;;;;4543098;28;20084;-71
2021/08/18 05:16:40;;;;;;;4.13;3.40;;;;;;;;;;4540838;28;20057;-72
2021/08/18 05:18:50;;;;;;;3.50;3.20;;;;;;;;;;4538878;28;20355;-72
2021/08/18 05:21:01;;;;;;;3.60;2.87;;;;;;;;;;4541437;28;21987;-72
2021/08/18 05:23:12;;;;;;;4.00;3.25;;;;;;;;;;4542302;28;20045;-72
2021/08/18 05:25:22;;;;;;;3.83;3.00;;;;;;;;;;4540981;28;20412;-72
2021/08/18 05:27:33;;;;;;;3.53;3.23;;;;;;;;;;4540761;28;20032;-72
2021/08/18 05:29:43;;;;;;;4.40;3.30;;;;;;;;;;4540090;28;20650;-72
2021/08/18 05:31:54;;;;;;;4.07;3.30;;;;;;;;;;4542577;28;20034;-71
2021/08/18 05:34:04;;;;;;;3.80;3.17;;;;;;;;;;4539917;28;20087;-72
2021/08/18 05:36:14;;;;;;;4.00;3.30;;;;;;;;;;4543825;28;20109;-72
2021/08/18 05:38:25;;;;;;;3.50;2.97;;;;;;;;;;4540614;28;20044;-72
2021/08/18 05:40:36;;;;;;;3.97;3.00;;;;;;;;;;4540808;28;20032;-73
2021/08/18 05:42:46;;;;;;;3.45;3.08;;;;;;;;;;4540742;28;20037;-72
2021/08/18 05:44:56;;;;;;;3.43;2.70;;;;;;;;;;4539157;28;20119;-72
2021/08/18 05:47:07;;;;;;;3.73;3.37;;;;;;;;;;4540965;28;21744;-72
2021/08/18 05:49:20;;;;;;;4.03;3.40;;;;;;;;;;4540437;28;20052;-73
2021/08/18 05:51:31;;;;;;;4.65;3.30;;;;;;;;;;4540148;28;20038;-73
2021/08/18 05:53:41;;;;;;;5.47;3.70;;;;;;;;;;4541473;28;20430;-72
2021/08/18 05:55:52;;;;;;;4.10;3.37;;;;;;;;;;4542342;28;20477;-73
2021/08/18 05:58:02;;;;;;;4.73;3.40;;;;;;;;;;4541255;28;20032;-73
2021/08/18 06:00:13;;;;;;;5.37;3.63;;;;;;;;;;4540127;28;20409;-73
2021/08/18 06:02:23;;;;;;;4.90;3.92;;;;;;;;;;4542470;28;20032;-73
2021/08/18 06:04:34;;;;;;;4.20;3.60;;;;;;;;;;4538117;28;20040;-73
2021/08/18 06:06:44;;;;;;;4.73;3.87;;;;;;;;;;4541348;28;20076;-73
2021/08/18 06:08:55;;;;;;;4.40;3.63;;;;;;;;;;4541127;28;20040;-74
2021/08/18 06:11:05;;;;;;;4.23;3.27;;;;;;;;;;4537003;28;20088;-73
2021/08/18 06:13:16;;;;;;;3.70;3.30;;;;;;;;;;4538398;28;20044;-73
2021/08/18 06:15:30;;;;;;;4.30;3.38;;;;;;;;;;4540973;28;20083;-73
2021/08/18 06:17:40;;;;;;;3.50;3.20;;;;;;;;;;4524887;28;20029;-73
2021/08/18 06:19:50;;;;;;;4.33;3.30;;;;;;;;;;4523372;28;20063;-73
2021/08/18 06:22:01;;;;;;;4.70;3.50;;;;;;;;;;4539783;28;20090;-73
2021/08/18 06:24:27;;;;;;;3.70;3.33;;;;;;;;;;4523648;28;20038;-73
2021/08/18 06:26:38;;;;;;;4.07;3.50;;;;;;;;;;4539778;28;20043;-73
2021/08/18 06:28:48;;;;;;;5.17;3.37;;;;;;;;;;4537491;28;20083;-73
2021/08/18 06:30:58;;;;;;;4.00;3.30;;;;;;;;;;4540012;28;20100;-73
2021/08/18 06:33:09;;;;;;;4.37;3.40;;;;;;;;;;4540022;28;29533;-73
2021/08/18 06:35:20;;;;;;;4.13;3.33;;;;;;;;;;4540931;28;20041;-73
2021/08/18 06:37:31;;;;;;;3.92;3.38;;;;;;;;;;4541001;28;20083;-73
2021/08/18 06:39:41;;;;;;;4.57;3.40;;;;;;;;;;4541373;28;20063;-73
2021/08/18 06:41:51;;;;;;;4.07;3.20;;;;;;;;;;4541149;28;20094;-73
2021/08/18 06:44:02;;;;;;;3.87;3.30;;;;;;;;;;4541464;28;20494;-73
2021/08/18 06:46:12;;;;;;;5.13;3.57;;;;;;;;;;4525590;28;20064;-72
2021/08/18 06:48:23;;;;;;;3.90;3.30;;;;;;;;;;4539087;28;20048;-73
2021/08/18 06:50:33;;;;;;;3.80;3.40;;;;;;;;;;4539050;28;20458;-73
2021/08/18 06:52:44;;;;;;;4.70;3.47;;;;;;;;;;4540148;28;20052;-73
2021/08/18 06:54:54;;;;;;;3.80;3.30;;;;;;;;;;4539323;28;20033;-73
2021/08/18 06:57:05;;;;;;;4.20;3.50;;;;;;;;;;4542341;28;20022;-73
2021/08/18 06:59:15;;;;;;;3.77;3.20;;;;;;;;;;4539034;28;20292;-73
2021/08/18 07:01:26;;;;;;;4.13;3.47;;;;;;;;;;4539380;28;20040;-72
2021/08/18 07:03:37;;;;;;;4.00;3.53;;;;;;;;;;4542909;28;20052;-73
2021/08/18 07:05:47;;;;;;;5.17;3.80;;;;;;;;;;4539911;28;20346;-73
2021/08/18 07:07:58;;;;;;;3.77;3.27;;;;;;;;;;4539649;28;20115;-73
2021/08/18 07:10:09;;;;;;;4.00;3.57;;;;;;;;;;4541812;28;20033;-72
2021/08/18 07:12:19;;;;;;;4.45;3.60;;;;;;;;;;4540337;28;20079;-73
2021/08/18 07:14:30;;;;;;;3.83;3.37;;;;;;;;;;4540135;28;20113;-73
2021/08/18 07:16:40;;;;;;;3.97;3.37;;;;;;;;;;4539205;28;20076;-73
2021/08/18 07:18:51;;;;;;;4.90;3.57;;;;;;;;;;4540882;28;20047;-73
2021/08/18 07:21:01;;;;;;;3.53;3.23;;;;;;;;;;4539101;28;20511;-73
2021/08/18 07:23:12;;;;;;;3.70;3.30;;;;;;;;;;4537442;28;20076;-72
2021/08/18 07:25:22;;;;;;;4.87;3.60;;;;;;;;;;4537713;28;20037;-73
2021/08/18 07:27:32;;;;;;;4.40;3.33;;;;;;;;;;4538251;28;20037;-72
2021/08/18 07:29:43;;;;;;;3.67;3.37;;;;;;;;;;4539810;28;20035;-73
2021/08/18 07:31:53;;;;;;;4.00;3.20;;;;;;;;;;4540710;28;20017;-73
2021/08/18 07:34:04;;;;;;;3.90;3.40;;;;;;;;;;4541621;28;20041;-73
2021/08/18 07:36:14;;;;;;;4.07;3.47;;;;;;;;;;4541070;28;20124;-73
2021/08/18 07:38:25;;;;;;;4.07;3.30;;;;;;;;;;4543049;28;20098;-73
2021/08/18 07:40:35;;;;;;;4.23;3.53;;;;;;;;;;4539561;28;20080;-74
2021/08/18 07:42:45;;;;;;;4.50;3.17;;;;;;;;;;4542645;28;20479;-73
2021/08/18 07:44:56;;;;;;;4.47;3.13;;;;;;;;;;4542848;28;20029;-73
2021/08/18 07:47:06;;;;;;;3.13;2.80;;;;;;;;;;4541856;28;22917;-73
2021/08/18 07:49:17;;;;;;;3.63;2.90;;;;;;;;;;4540971;28;20029;-74
2021/08/18 07:51:27;;;;;;;4.53;3.20;;;;;;;;;;4541141;28;20036;-74
2021/08/18 07:53:41;;;;;;;3.93;3.07;;;;;;;;;;4542918;28;20702;-74
2021/08/18 07:55:52;;;;;;;3.70;2.97;;;;;;;;;;4541950;28;20620;-74
2021/08/18 07:58:02;;;;;;;3.70;2.80;;;;;;;;;;4541289;28;20037;-74
2021/08/18 08:00:13;;;;;;;3.30;2.43;;;;;;;;;;4542931;28;20040;-74
2021/08/18 08:02:23;;;;;;;3.92;2.60;;;;;;;;;;4540155;28;20144;-74
2021/08/18 08:04:34;;;;;;;3.50;2.53;;;;;;;;;;4541117;28;23774;-74
2021/08/18 08:06:49;;;;;;;3.13;2.50;;;;;;;;;;4541904;28;20029;-74
2021/08/18 08:08:59;;;;;;;3.08;2.50;;;;;;;;;;4540060;28;20036;-74
2021/08/18 08:11:10;;;;;;;2.93;2.53;;;;;;;;;;4539532;28;20037;-74
2021/08/18 08:13:20;;;;;;;3.43;2.50;;;;;;;;;;4542093;28;20043;-74
2021/08/18 08:15:31;;;;;;;3.27;2.37;;;;;;;;;;4542321;28;20074;-74
2021/08/18 08:17:41;;;;;;;2.43;2.20;;;;;;;;;;4542606;28;20052;-74
2021/08/18 08:19:52;;;;;;;2.23;1.93;;;;;;;;;;4540853;28;20138;-74
2021/08/18 08:22:03;;;;;;;2.60;1.97;;;;;;;;;;4545925;28;20037;-74
2021/08/18 08:24:13;;;;;;;2.20;1.90;;;;;;;;;;4541832;28;20066;-73
2021/08/18 08:26:23;;;;;;;2.93;1.80;;;;;;;;;;4540859;28;20033;-74
2021/08/18 08:28:34;;;;;;;2.27;1.83;;;;;;;;;;4542628;28;20044;-74
2021/08/18 08:30:44;;;;;;;2.30;1.80;;;;;;;;;;4540415;28;20908;-74
2021/08/18 08:32:55;;;;;;;5.37;2.23;;;;;;;;;;4540253;28;20132;-74
2021/08/18 08:35:09;;;;;;;1.60;1.50;;;;;;;;;;4540925;28;20029;-74
2021/08/18 08:37:20;;;;;;;1.95;1.52;;;;;;;;;;4528889;28;20305;-74
2021/08/18 08:39:30;;;;;;;1.90;1.57;;;;;;;;;;4540333;28;20051;-74
2021/08/18 08:41:43;;;;;;;2.27;1.73;;;;;;;;;;4542558;28;20037;-73
2021/08/18 08:43:54;;;;;;;3.35;2.00;;;;;;;;;;4539582;28;20916;-74
2021/08/18 08:46:06;;;;;;;2.13;1.60;;;;;;;;;;4540474;28;20068;-73
2021/08/18 08:48:18;;;;;;;1.95;1.75;;;;;;;;;;4539140;28;20657;-73
2021/08/18 08:50:30;;;;;;;1.70;1.40;;;;;;;;;;4538493;28;20028;-73
2021/08/18 08:52:40;;;;;;;2.85;1.75;;;;;;;;;;4541829;28;20052;-73
2021/08/18 08:54:51;;;;;;;2.07;1.60;;;;;;;;;;4541211;28;20040;-73
2021/08/18 08:57:01;;;;;;;2.00;1.73;;;;;;;;;;4540754;28;20552;-73
2021/08/18 08:59:12;;;;;;;1.80;1.20;;;;;;;;;;4554082;28;20119;-73
2021/08/18 09:01:22;;;;;;;1.77;1.40;;;;;;;;;;4540179;28;20393;-73
2021/08/18 09:03:35;;;;;;;1.40;1.30;;;;;;;;;;4543478;28;20590;-72
2021/08/18 09:05:46;;;;;;;2.63;1.50;;;;;;;;;;4543634;28;20033;-73
2021/08/18 09:07:58;;;;;;;1.75;1.48;;;;;;;;;;4540346;28;20025;-73
2021/08/18 09:10:13;;;;;;;1.83;1.38;;;;;;;;;;4539832;28;20041;-72
2021/08/18 09:12:32;;;;;;;1.60;1.10;;;;;;;;;;4541105;28;30845;-73
2021/08/18 09:14:43;;;;;;;1.88;1.35;;;;;;;;;;4529000;28;20091;-73
2021/08/18 09:16:53;;;;;;;2.50;1.55;;;;;;;;;;4540020;28;20068;-73
2021/08/18 09:19:04;;;;;;;2.10;1.50;;;;;;;;;;4542811;28;20186;-72
2021/08/18 09:21:36;;;;;;;1.30;1.10;;;;;;;;;;4541753;28;20048;-72
2021/08/18 09:23:46;;;;;;;1.92;1.33;;;;;;;;;;4541497;28;20037;-72
2021/08/18 09:25:57;;;;;;;1.50;1.23;;;;;;;;;;4541950;28;20036;-73
2021/08/18 09:28:07;;;;;;;1.30;1.20;;;;;;;;;;4541594;28;20044;-73
2021/08/18 09:30:23;;;;;;;1.57;1.30;;;;;;;;;;4543002;28;20494;-73
2021/08/18 09:32:36;;;;;;;1.50;1.23;;;;;;;;;;4542824;28;20125;-72
2021/08/18 09:34:56;;;;;;;1.45;1.13;;;;;;;;;;4540849;28;20040;-73
2021/08/18 09:37:10;;;;;;;2.67;1.27;;;;;;;;;;4524222;28;20096;-73
2021/08/18 09:39:23;;;;;;;1.92;1.10;;;;;;;;;;4542473;28;20040;-72
2021/08/18 09:41:34;;;;;;;2.17;1.20;;;;;;;;;;4541171;28;20021;-72
2021/08/18 09:43:44;;;;;;;1.20;1.10;;;;;;;;;;4539310;28;20580;-72
2021/08/18 09:46:05;;;;;;;1.47;1.20;;;;;;;;;;4525623;28;20033;-72
2021/08/18 09:48:18;;;;;;;2.25;1.23;;;;;;;;;;4542532;28;21042;-72
2021/08/18 09:50:40;;;;;;;1.13;1.00;;;;;;;;;;4540605;28;20029;-72
2021/08/18 09:52:52;;;;;;;1.20;1.02;;;;;;;;;;4539532;28;20053;-73
2021/08/18 09:55:03;;;;;;;1.65;1.17;;;;;;;;;;4537297;28;20108;-72
2021/08/18 09:57:14;;;;;;;1.45;1.10;;;;;;;;;;4541873;28;20118;-73
2021/08/18 09:59:24;;;;;;;1.60;1.13;;;;;;;;;;4541281;28;23480;-72
2021/08/18 10:01:35;;;;;;;1.57;1.27;;;;;;;;;;4538425;28;20039;-72
2021/08/18 10:03:49;;;;;;;1.20;1.00;;;;;;;;;;4538751;28;20096;-72
2021/08/18 10:06:00;;;;;;;1.13;1.02;;;;;;;;;;4539823;28;20043;-72
2021/08/18 10:08:11;;;;;;;1.70;1.10;;;;;;;;;;4539360;28;20035;-72
2021/08/18 10:10:21;;;;;;;1.10;1.00;;;;;;;;;;4538848;28;20041;-72
2021/08/18 10:12:34;;;;;;;1.00;0.90;;;;;;;;;;4540694;28;20053;-72
2021/08/18 10:14:45;;;;;;;1.20;1.10;;;;;;;;;;4541302;28;20033;-72
2021/08/18 10:16:55;;;;;;;1.92;1.27;;;;;;;;;;4539484;28;23884;-72
2021/08/18 10:19:06;;;;;;;1.10;1.00;;;;;;;;;;4541806;28;20096;-72
2021/08/18 10:21:25;;;;;;;2.60;1.20;;;;;;;;;;4523182;28;20056;-72
2021/08/18 10:24:01;;;;;;;1.10;1.00;;;;;;;;;;4539858;28;20112;-73
2021/08/18 10:26:34;;;;;;;1.23;0.90;;;;;;;;;;4540631;28;20041;-72
2021/08/18 10:29:06;;;;;;;1.33;1.00;;;;;;;;;;4540536;28;20690;-72
2021/08/18 10:33:53;;;;;;;1.30;1.05;;;;;;;;;;4537917;28;20128;-72
2021/08/18 10:36:03;;;;;;;2.08;0.90;;;;;;;;;;4542171;28;20041;-73
2021/08/18 10:38:27;;;;;;;3.37;2.00;;;;;;;;;;4539836;28;20029;-72
2021/08/18 10:40:37;;;;;;;1.63;1.10;;;;;;;;;;4540945;28;20036;-72
2021/08/18 10:42:47;;;;;;;1.53;1.10;;;;;;;;;;4542249;28;20422;-73
2021/08/18 10:44:58;;;;;;;1.37;1.00;;;;;;;;;;4541223;28;20036;-72
2021/08/18 10:47:18;;;;;;;1.07;0.87;;;;;;;;;;4542547;28;20075;-72
2021/08/18 10:49:28;;;;;;;2.13;1.20;;;;;;;;;;4539807;28;20095;-73
2021/08/18 10:51:42;;;;;;;1.73;1.07;;;;;;;;;;4542344;28;20527;-73
2021/08/18 10:53:52;;;;;;;1.75;1.13;;;;;;;;;;4522121;28;20048;-73
2021/08/18 10:56:40;;;;;;;1.73;1.13;;;;;;;;;;4540286;28;20037;-73
2021/08/18 10:58:51;;;;;;;1.25;0.90;;;;;;;;;;4538562;28;20675;-73
2021/08/18 11:01:01;;;;;;;1.50;0.97;;;;;;;;;;4542624;28;20124;-72
2021/08/18 11:03:18;;;;;;;1.17;0.97;;;;;;;;;;4540957;28;20057;-72
2021/08/18 11:05:42;;;;;;;1.30;0.85;;;;;;;;;;4540151;28;20029;-73
2021/08/18 11:08:08;;;;;;;1.55;0.65;;;;;;;;;;4543605;28;20036;-72
2021/08/18 11:10:18;;;;;;;1.02;0.93;;;;;;;;;;4531074;28;20907;-72
2021/08/18 11:12:41;;;;;;;1.63;1.17;;;;;;;;;;4544379;28;20071;-72
2021/08/18 11:14:51;;;;;;;1.20;1.08;;;;;;;;;;4541402;28;20033;-72
2021/08/18 11:17:06;;;;;;;1.40;1.07;;;;;;;;;;4541945;28;26161;-72
2021/08/18 11:19:16;;;;;;;1.27;1.10;;;;;;;;;;4541141;28;20041;-72
2021/08/18 11:21:32;;;;;;;2.00;1.30;;;;;;;;;;4544357;28;20605;-72
2021/08/18 11:23:48;;;;;;;1.40;1.30;;;;;;;;;;4544199;28;20029;-73
2021/08/18 11:26:01;;;;;;;1.10;1.00;;;;;;;;;;4542549;28;20037;-73
2021/08/18 11:28:22;;;;;;;2.00;1.38;;;;;;;;;;4539474;28;20025;-72
2021/08/18 11:30:33;;;;;;;1.40;1.30;;;;;;;;;;4542818;28;20045;-72
2021/08/18 11:32:43;;;;;;;1.00;0.90;;;;;;;;;;4541122;28;20580;-72
2021/08/18 11:34:53;;;;;;;1.50;1.40;;;;;;;;;;4540652;28;20086;-72
2021/08/18 11:37:05;;;;;;;1.53;1.27;;;;;;;;;;4539576;28;20098;-72
2021/08/18 11:39:15;;;;;;;;;;;;;;;;;;4540180;28;20112;-72
2021/08/18 11:41:46;;;;;;;0.98;0.98;;;;;;;;;;4525233;28;20208;-72
2021/08/18 11:43:57;;;;;;;1.70;1.17;;;;;;;;;;4541628;28;20156;-72
2021/08/18 11:46:08;;;;;;;1.47;1.20;;;;;;;;;;4543048;28;26563;-71
2021/08/18 11:48:22;;;;;;;;;;;;;;;;;;4543189;28;20032;-72
2021/08/18 11:50:32;;;;;;;1.00;0.88;;;;;;;;;;4541585;28;19982;-72
2021/08/18 11:52:43;;;;;;;1.17;0.90;;;;;;;;;;4541790;28;20051;-72
2021/08/18 11:54:55;;;;;;;1.10;0.90;;;;;;;;;;4543186;28;20041;-72
2021/08/18 11:57:08;;;;;;;1.40;1.23;;;;;;;;;;4541680;28;20576;-71
2021/08/18 11:59:20;;;;;;;1.60;1.08;;;;;;;;;;4540913;28;20020;-72
2021/08/18 12:01:31;;;;;;;1.65;1.15;;;;;;;;;;4544090;28;20550;-72
2021/08/18 12:03:43;;;;;;;2.10;1.33;;;;;;;;;;4545520;28;20033;-72
2021/08/18 12:06:04;;;;;;;1.60;1.23;;;;;;;;;;4542747;28;20040;-72
2021/08/18 12:08:16;;;;;;;2.42;1.25;;;;;;;;;;4541299;28;20140;-72
2021/08/18 12:10:27;;;;;;;1.30;1.08;;;;;;;;;;4542019;28;20040;-72
2021/08/18 12:12:37;;;;;;;1.03;0.93;;;;;;;;;;4529452;28;20052;-74
2021/08/18 12:14:50;;;;;;;1.30;1.10;;;;;;;;;;4524125;28;20497;-73
2021/08/18 12:17:01;;;;;;;1.13;1.00;;;;;;;;;;4542167;28;20040;-72
2021/08/18 12:19:15;;;;;;;1.47;1.27;;;;;;;;;;4540342;28;20020;-72
2021/08/18 12:21:29;;;;;;;1.13;1.02;;;;;;;;;;4542738;28;20456;-73
2021/08/18 12:23:40;;;;;;;1.33;1.00;;;;;;;;;;4526607;28;20044;-72
2021/08/18 12:25:51;;;;;;;1.60;1.13;;;;;;;;;;4542190;28;20409;-73
2021/08/18 12:28:16;;;;;;;1.00;0.90;;;;;;;;;;4539501;28;20111;-73
2021/08/18 12:30:26;;;;;;;1.20;0.98;;;;;;;;;;4542064;28;20037;-73
2021/08/18 12:32:37;;;;;;;1.00;0.90;;;;;;;;;;4543602;28;20049;-73
2021/08/18 12:34:57;;;;;;;1.77;1.00;;;;;;;;;;4545316;28;20036;-73
2021/08/18 12:37:10;;;;;;;1.20;0.80;;;;;;;;;;4541536;28;20139;-73
2021/08/18 12:39:28;;;;;;;1.35;0.90;;;;;;;;;;4542439;28;20839;-73
2021/08/18 12:41:38;;;;;;;1.23;1.00;;;;;;;;;;4543214;28;20161;-78
2021/08/18 12:44:05;;;;;;;1.87;1.07;;;;;;;;;;4529707;28;20383;-61
2021/08/18 12:46:22;;;;;;;1.00;0.90;;;;;;;;;;4542351;28;20091;-60
2021/08/18 12:48:33;;;;;;;1.50;1.20;;;;;;;;;;4542470;28;20596;-60
2021/08/18 12:50:43;;;;;;;2.60;1.47;;;;;;;;;;4541325;28;20028;-59
2021/08/18 12:52:54;;;;;;;2.10;1.40;;;;;;;;;;4541087;28;20095;-60
2021/08/18 12:55:05;;;;;;;2.03;1.40;;;;;;;;;;4544272;28;20869;-60
2021/08/18 12:57:15;;;;;;;1.77;1.25;;;;;;;;;;4542569;28;20088;-60
2021/08/18 12:59:26;;;;;;;1.30;1.10;;;;;;;;;;4540370;28;20033;-60
2021/08/18 13:01:36;;;;;;;1.63;1.47;;;;;;;;;;4540918;28;20482;-59
2021/08/18 13:03:49;;;;;;;1.73;1.50;;;;;;;;;;4541409;28;20107;-61
2021/08/18 13:06:00;;;;;;;1.40;1.30;;;;;;;;;;4542830;28;20037;-61
2021/08/18 13:08:10;;;;;;;1.60;1.50;;;;;;;;;;4542053;28;20033;-61
2021/08/18 13:10:21;;;;;;;1.40;1.20;;;;;;;;;;4539320;28;20045;-61
2021/08/18 13:12:33;;;;;;;1.57;1.47;;;;;;;;;;4540365;28;20622;-59